Time;durP1;ratioP1;P1;durP2;ratioP2;P2;SDS_P1;SDS_P2;PMS_P1;PMS_P2;Temp;Humidity;BMP_temperature;BMP_pressure;BME280_temperature;BME280_humidity;BME280_pressure;Samples;Min_cycle;Max_cycle;Signal;HPM_P1;HPM_P2
2022/07/09 00:00:24;;;;;;;17.02;10.15;;;19.10;99.90;;;;;;4994124;28;25078;-71
2022/07/09 00:02:50;;;;;;;18.63;9.88;;;19.20;99.90;;;;;;4990345;28;25135;-71
2022/07/09 00:05:16;;;;;;;16.00;9.55;;;19.20;99.90;;;;;;4981391;28;25054;-69
2022/07/09 00:07:41;;;;;;;15.52;10.32;;;19.30;99.90;;;;;;4967421;28;25138;-69
2022/07/09 00:10:07;;;;;;;16.40;10.45;;;19.20;99.90;;;;;;4980197;28;25103;-68
2022/07/09 00:12:33;;;;;;;18.25;9.77;;;19.10;99.90;;;;;;4974659;28;25062;-73
2022/07/09 00:14:59;;;;;;;19.10;10.00;;;19.10;99.90;;;;;;4973185;28;25079;-72
2022/07/09 00:17:25;;;;;;;16.65;9.68;;;19.10;99.90;;;;;;4969040;28;25082;-70
2022/07/09 00:19:52;;;;;;;16.50;10.63;;;19.10;99.90;;;;;;4976444;28;25071;-70
2022/07/09 00:22:18;;;;;;;14.15;9.27;;;19.00;99.90;;;;;;4972378;28;25084;-71
2022/07/09 00:24:44;;;;;;;18.08;10.38;;;19.00;99.90;;;;;;4970957;28;25135;-72
2022/07/09 00:27:09;;;;;;;15.98;10.02;;;19.00;99.90;;;;;;4972838;28;25056;-73
2022/07/09 00:29:35;;;;;;;13.85;8.82;;;19.00;99.90;;;;;;4971490;28;25097;-69
2022/07/09 00:32:01;;;;;;;15.55;10.15;;;19.00;99.90;;;;;;4981369;28;25084;-69
2022/07/09 00:34:27;;;;;;;13.30;8.82;;;19.10;99.90;;;;;;4969751;28;25151;-70
2022/07/09 00:36:52;;;;;;;17.55;9.15;;;19.10;99.90;;;;;;4979375;28;25060;-71
2022/07/09 00:39:18;;;;;;;13.75;8.88;;;19.00;99.90;;;;;;4971403;28;25059;-68
2022/07/09 00:41:43;;;;;;;17.05;8.40;;;19.00;99.90;;;;;;4969016;28;25172;-68
2022/07/09 00:44:09;;;;;;;13.93;8.73;;;19.10;99.90;;;;;;4973683;28;25077;-73
2022/07/09 00:46:35;;;;;;;15.07;8.32;;;19.10;99.90;;;;;;4976628;28;25120;-69
2022/07/09 00:49:03;;;;;;;16.40;8.98;;;19.00;99.90;;;;;;4990051;28;25127;-69
2022/07/09 00:51:30;;;;;;;14.02;9.27;;;19.00;99.90;;;;;;4963885;28;25072;-71
2022/07/09 00:53:57;;;;;;;16.45;7.82;;;18.90;99.90;;;;;;4974963;28;25051;-69
2022/07/09 00:56:23;;;;;;;14.05;9.05;;;18.80;99.90;;;;;;4983828;28;25106;-71
2022/07/09 00:58:51;;;;;;;13.02;7.97;;;18.80;99.90;;;;;;4971555;28;25122;-72
2022/07/09 01:01:17;;;;;;;12.55;7.80;;;18.90;99.90;;;;;;4973479;28;25076;-69
2022/07/09 01:03:43;;;;;;;17.35;9.30;;;18.90;99.90;;;;;;4968580;28;25159;-69
2022/07/09 01:06:08;;;;;;;13.55;8.80;;;18.90;99.90;;;;;;4970184;28;25102;-71
2022/07/09 01:08:34;;;;;;;21.83;8.95;;;18.90;99.90;;;;;;4976937;28;25107;-70
2022/07/09 01:11:00;;;;;;;12.85;8.40;;;18.90;99.90;;;;;;4974558;28;25048;-72
2022/07/09 01:13:27;;;;;;;15.20;8.57;;;18.90;99.90;;;;;;4981855;28;25076;-72
2022/07/09 01:15:52;;;;;;;16.45;9.85;;;18.90;99.90;;;;;;4972151;28;25061;-73
2022/07/09 01:18:19;;;;;;;16.02;8.68;;;18.90;99.90;;;;;;4977985;28;25069;-68
2022/07/09 01:20:45;;;;;;;16.05;9.77;;;18.80;99.90;;;;;;4969586;28;25127;-70
2022/07/09 01:23:11;;;;;;;15.50;10.55;;;18.90;99.90;;;;;;4972461;28;25104;-70
2022/07/09 01:25:39;;;;;;;14.00;9.98;;;18.80;99.90;;;;;;4978138;28;25090;-68
2022/07/09 01:28:06;;;;;;;14.63;9.85;;;18.80;99.90;;;;;;4979739;28;25128;-72
2022/07/09 01:30:33;;;;;;;19.90;11.63;;;18.90;99.90;;;;;;4976329;28;25129;-68
2022/07/09 01:33:00;;;;;;;16.75;11.43;;;18.90;99.90;;;;;;4976180;28;25085;-70
2022/07/09 01:35:26;;;;;;;18.98;11.32;;;18.90;99.90;;;;;;4990540;28;25052;-70
2022/07/09 01:37:53;;;;;;;17.20;11.68;;;18.80;99.90;;;;;;4978560;28;25088;-70
2022/07/09 01:40:19;;;;;;;20.27;13.88;;;18.90;99.90;;;;;;4975188;28;25106;-69
2022/07/09 01:42:46;;;;;;;25.45;14.93;;;18.90;99.90;;;;;;4978011;28;25113;-71
2022/07/09 01:45:12;;;;;;;18.98;13.80;;;18.80;99.90;;;;;;4977716;28;25062;-72
2022/07/09 01:47:37;;;;;;;17.83;12.48;;;18.80;99.90;;;;;;4973984;28;25054;-70
2022/07/09 01:50:04;;;;;;;19.45;12.57;;;18.80;99.90;;;;;;4978210;28;25087;-69
2022/07/09 01:52:30;;;;;;;17.77;11.60;;;18.80;99.90;;;;;;4976135;28;25136;-70
2022/07/09 01:54:56;;;;;;;16.58;11.70;;;18.80;99.90;;;;;;4982552;28;25061;-70
2022/07/09 01:57:22;;;;;;;19.67;12.52;;;18.70;99.90;;;;;;4976891;28;25080;-69
2022/07/09 01:59:48;;;;;;;18.08;12.20;;;18.70;99.90;;;;;;4980032;28;25064;-70
2022/07/09 02:02:13;;;;;;;16.10;12.18;;;18.70;99.90;;;;;;4971823;28;25103;-69
2022/07/09 02:04:39;;;;;;;18.88;12.80;;;18.70;99.90;;;;;;4978813;28;25098;-72
2022/07/09 02:07:04;;;;;;;19.75;13.05;;;18.70;99.90;;;;;;4974915;28;25072;-70
2022/07/09 02:09:30;;;;;;;20.02;14.38;;;18.70;99.90;;;;;;4979531;28;25142;-68
2022/07/09 02:11:56;;;;;;;19.73;14.02;;;18.80;99.90;;;;;;5002143;28;25149;-69
2022/07/09 02:14:22;;;;;;;22.67;16.00;;;18.70;99.90;;;;;;4992015;28;25034;-71
2022/07/09 02:16:48;;;;;;;21.35;15.48;;;18.80;99.90;;;;;;4978170;28;25141;-72
2022/07/09 02:19:14;;;;;;;24.67;17.30;;;18.80;99.90;;;;;;4971063;28;25131;-70
2022/07/09 02:21:40;;;;;;;28.70;18.63;;;18.90;99.90;;;;;;4973236;28;24953;-69
2022/07/09 02:24:06;;;;;;;29.65;20.65;;;18.80;99.90;;;;;;4975098;28;25107;-73
2022/07/09 02:26:31;;;;;;;30.98;21.63;;;18.80;99.90;;;;;;4973118;28;25113;-68
2022/07/09 02:28:57;;;;;;;34.17;22.40;;;18.90;99.90;;;;;;4993529;28;25205;-68
2022/07/09 02:31:23;;;;;;;30.83;20.90;;;18.80;99.90;;;;;;4988240;28;25133;-73
2022/07/09 02:33:49;;;;;;;29.60;21.05;;;18.90;99.90;;;;;;4992335;28;25100;-74
2022/07/09 02:36:14;;;;;;;36.72;21.65;;;19.00;99.90;;;;;;4973668;28;25058;-68
2022/07/09 02:38:40;;;;;;;29.73;22.02;;;19.00;99.90;;;;;;4971148;28;25104;-70
2022/07/09 02:41:05;;;;;;;29.88;22.60;;;19.00;99.90;;;;;;4973209;28;25131;-69
2022/07/09 02:43:32;;;;;;;36.25;21.48;;;18.90;99.90;;;;;;4965795;28;25111;-70
2022/07/09 02:45:58;;;;;;;38.30;22.67;;;18.80;99.90;;;;;;4975770;28;25074;-69
2022/07/09 02:48:25;;;;;;;30.40;23.30;;;18.80;99.90;;;;;;4973396;28;25076;-69
2022/07/09 02:50:51;;;;;;;30.55;21.73;;;18.70;99.90;;;;;;4995408;28;25133;-68
2022/07/09 02:53:18;;;;;;;34.38;22.38;;;18.70;99.90;;;;;;4972167;28;25133;-68
2022/07/09 02:55:44;;;;;;;28.52;20.70;;;18.70;99.90;;;;;;4990912;28;25051;-69
2022/07/09 02:58:13;;;;;;;26.00;19.02;;;18.70;99.90;;;;;;4968190;28;25053;-69
2022/07/09 03:00:39;;;;;;;31.20;19.90;;;18.70;99.90;;;;;;4972722;28;25118;-71
2022/07/09 03:03:06;;;;;;;28.17;19.48;;;18.70;99.90;;;;;;4998712;28;25124;-68
2022/07/09 03:05:31;;;;;;;28.27;20.02;;;18.80;99.90;;;;;;4977655;28;25043;-68
2022/07/09 03:07:57;;;;;;;37.47;19.88;;;18.80;99.90;;;;;;4989863;28;25070;-69
2022/07/09 03:10:23;;;;;;;26.00;19.98;;;18.90;99.90;;;;;;4990447;28;25076;-68
2022/07/09 03:12:48;;;;;;;30.10;21.80;;;18.80;99.90;;;;;;4998001;28;25106;-69
2022/07/09 03:15:16;;;;;;;27.67;19.65;;;18.70;99.90;;;;;;4981698;28;25144;-69
2022/07/09 03:17:43;;;;;;;30.67;22.48;;;18.80;99.90;;;;;;4971561;28;25102;-69
2022/07/09 03:20:10;;;;;;;31.20;22.17;;;18.90;99.90;;;;;;4974795;28;25081;-70
2022/07/09 03:22:35;;;;;;;33.58;20.42;;;18.90;99.90;;;;;;4978626;28;25106;-69
2022/07/09 03:25:02;;;;;;;24.92;19.52;;;18.90;99.90;;;;;;4979045;28;25171;-71
2022/07/09 03:27:28;;;;;;;28.08;20.73;;;18.90;99.90;;;;;;4979224;28;25106;-71
2022/07/09 03:29:53;;;;;;;37.45;22.00;;;19.00;99.90;;;;;;4976342;28;25059;-70
2022/07/09 03:32:19;;;;;;;33.10;20.75;;;19.20;99.90;;;;;;4968165;28;25097;-71
2022/07/09 03:34:45;;;;;;;30.73;22.27;;;19.20;99.90;;;;;;4978919;28;25116;-71
2022/07/09 03:37:10;;;;;;;30.52;22.27;;;19.20;99.90;;;;;;4971024;28;25077;-70
2022/07/09 03:39:36;;;;;;;39.50;25.55;;;19.30;99.90;;;;;;4972170;28;25076;-71
2022/07/09 03:42:02;;;;;;;31.95;23.15;;;19.30;99.90;;;;;;4979464;28;25114;-71
2022/07/09 03:44:27;;;;;;;31.02;23.23;;;19.30;99.90;;;;;;4982982;28;25111;-69
2022/07/09 03:46:53;;;;;;;37.85;25.70;;;19.20;99.90;;;;;;4989609;28;25134;-71
2022/07/09 03:49:19;;;;;;;31.55;22.02;;;19.30;99.90;;;;;;4975627;28;25068;-72
2022/07/09 03:51:44;;;;;;;40.22;24.30;;;19.30;99.90;;;;;;4976488;28;25064;-71
2022/07/09 03:54:10;;;;;;;38.10;25.38;;;19.40;99.90;;;;;;4978409;28;25075;-70
2022/07/09 03:56:36;;;;;;;39.92;25.92;;;19.40;99.90;;;;;;4991824;28;25070;-70
2022/07/09 03:59:02;;;;;;;33.83;24.77;;;19.50;99.90;;;;;;4982208;28;25114;-71
2022/07/09 04:01:27;;;;;;;36.97;26.23;;;19.50;99.90;;;;;;4974943;28;25059;-71
2022/07/09 04:03:53;;;;;;;38.03;26.45;;;19.60;99.90;;;;;;4978731;28;25122;-71
2022/07/09 04:06:20;;;;;;;37.63;25.00;;;19.70;99.90;;;;;;4981821;28;25155;-72
2022/07/09 04:08:46;;;;;;;38.00;26.90;;;19.70;99.90;;;;;;4973562;28;25129;-71
2022/07/09 04:11:11;;;;;;;38.47;25.70;;;19.60;99.90;;;;;;4993014;28;25067;-72
2022/07/09 04:13:37;;;;;;;34.65;23.58;;;19.60;99.90;;;;;;4965259;28;25067;-71
2022/07/09 04:16:03;;;;;;;41.58;26.08;;;19.70;99.90;;;;;;4980622;28;25087;-70
2022/07/09 04:18:29;;;;;;;35.85;25.48;;;19.70;99.90;;;;;;4967534;28;25126;-71
2022/07/09 04:20:54;;;;;;;34.55;23.50;;;19.70;99.90;;;;;;4974151;28;25078;-70
2022/07/09 04:23:20;;;;;;;38.42;25.60;;;19.60;99.90;;;;;;4973610;28;25056;-69
2022/07/09 04:25:47;;;;;;;32.67;24.17;;;19.70;99.90;;;;;;4966943;28;25080;-71
2022/07/09 04:28:13;;;;;;;40.85;25.20;;;19.70;99.90;;;;;;4993187;28;25135;-73
2022/07/09 04:30:40;;;;;;;29.92;24.30;;;19.70;99.90;;;;;;4974249;28;25148;-69
2022/07/09 04:33:06;;;;;;;33.03;23.20;;;19.70;99.90;;;;;;4978228;28;25117;-71
2022/07/09 04:35:31;;;;;;;33.38;25.90;;;19.80;99.90;;;;;;4978688;28;25105;-71
2022/07/09 04:37:57;;;;;;;36.13;23.90;;;19.80;99.90;;;;;;4977489;28;25063;-68
2022/07/09 04:40:22;;;;;;;44.40;25.17;;;19.70;99.90;;;;;;4977963;28;25097;-70
2022/07/09 04:42:48;;;;;;;36.65;24.77;;;19.70;99.90;;;;;;4988837;28;25103;-67
2022/07/09 04:45:15;;;;;;;35.88;25.60;;;19.70;99.90;;;;;;4971226;28;25170;-71
2022/07/09 04:47:40;;;;;;;35.05;26.95;;;19.70;99.90;;;;;;4982575;28;25107;-71
2022/07/09 04:50:07;;;;;;;39.03;26.27;;;19.70;99.90;;;;;;4978376;28;25084;-72
2022/07/09 04:52:32;;;;;;;45.75;32.22;;;19.70;99.90;;;;;;4990014;28;25067;-71
2022/07/09 04:54:58;;;;;;;38.90;27.27;;;19.70;99.90;;;;;;4978095;28;25143;-68
2022/07/09 04:57:23;;;;;;;42.13;30.40;;;19.70;99.90;;;;;;4981944;28;25071;-69
2022/07/09 04:59:49;;;;;;;44.42;27.98;;;19.60;99.90;;;;;;4979337;28;25127;-71
2022/07/09 05:02:15;;;;;;;42.35;30.05;;;19.70;99.90;;;;;;4973617;28;25054;-68
2022/07/09 05:04:40;;;;;;;42.63;29.13;;;19.80;99.90;;;;;;4976294;28;25081;-70
2022/07/09 05:07:06;;;;;;;42.08;30.52;;;19.90;99.90;;;;;;4987928;28;25082;-73
2022/07/09 05:09:31;;;;;;;40.72;30.00;;;19.80;99.90;;;;;;4980739;28;25106;-70
2022/07/09 05:11:57;;;;;;;45.45;30.58;;;19.70;99.90;;;;;;4984445;28;25061;-67
2022/07/09 05:14:22;;;;;;;44.80;30.75;;;19.60;99.90;;;;;;4976756;28;25117;-68
2022/07/09 05:16:48;;;;;;;38.88;28.55;;;19.60;99.90;;;;;;4979306;28;25141;-67
2022/07/09 05:19:14;;;;;;;37.88;29.00;;;19.60;99.90;;;;;;4970553;28;25164;-71
2022/07/09 05:21:40;;;;;;;32.97;26.77;;;19.80;99.90;;;;;;4972601;28;25057;-71
2022/07/09 05:24:07;;;;;;;41.78;28.52;;;19.70;99.90;;;;;;4973956;28;25048;-69
2022/07/09 05:26:33;;;;;;;36.78;26.73;;;19.70;99.90;;;;;;4979645;28;25063;-72
2022/07/09 05:28:58;;;;;;;39.75;25.90;;;19.70;99.90;;;;;;4970217;28;25082;-69
2022/07/09 05:31:24;;;;;;;33.38;24.63;;;19.90;99.90;;;;;;4972398;28;25150;-69
2022/07/09 05:33:51;;;;;;;35.45;24.45;;;19.90;99.90;;;;;;4973491;28;25112;-69
2022/07/09 05:36:17;;;;;;;34.03;22.85;;;19.80;99.90;;;;;;4978863;28;25067;-69
2022/07/09 05:38:43;;;;;;;30.00;22.02;;;19.90;99.90;;;;;;4973339;28;25077;-72
2022/07/09 05:41:10;;;;;;;31.95;21.85;;;20.00;99.90;;;;;;4974710;28;25171;-70
2022/07/09 05:43:36;;;;;;;30.10;20.90;;;20.10;99.90;;;;;;4971918;28;25125;-69
2022/07/09 05:46:02;;;;;;;25.63;19.90;;;19.90;99.90;;;;;;4975541;28;25124;-69
2022/07/09 05:48:28;;;;;;;26.90;19.58;;;19.90;99.90;;;;;;4972824;28;25086;-70
2022/07/09 05:50:54;;;;;;;25.30;18.60;;;20.00;99.90;;;;;;4972315;28;25112;-68
2022/07/09 05:53:20;;;;;;;25.85;18.33;;;20.10;99.90;;;;;;4975118;28;25139;-69
2022/07/09 05:55:46;;;;;;;23.88;17.70;;;20.10;99.90;;;;;;4973318;28;25150;-68
2022/07/09 05:58:12;;;;;;;26.35;19.27;;;20.10;99.90;;;;;;4985745;28;25060;-70
2022/07/09 06:00:38;;;;;;;23.23;17.15;;;20.00;99.90;;;;;;4971536;28;25131;-69
2022/07/09 06:03:03;;;;;;;25.88;18.25;;;20.00;99.90;;;;;;4983887;28;25061;-70
2022/07/09 06:05:29;;;;;;;24.27;17.17;;;20.10;99.90;;;;;;4977693;28;25087;-69
2022/07/09 06:07:55;;;;;;;22.30;16.40;;;20.10;99.90;;;;;;4973702;28;25172;-69
2022/07/09 06:10:21;;;;;;;27.38;15.65;;;20.10;99.90;;;;;;4972613;28;25119;-70
2022/07/09 06:12:47;;;;;;;21.40;15.27;;;20.20;99.90;;;;;;4979741;28;25126;-72
2022/07/09 06:15:13;;;;;;;29.73;16.45;;;20.40;99.90;;;;;;4979539;28;25077;-71
2022/07/09 06:17:39;;;;;;;20.20;14.05;;;20.50;99.90;;;;;;4980270;28;25061;-71
2022/07/09 06:20:05;;;;;;;22.17;14.55;;;20.40;99.90;;;;;;4978687;28;25151;-70
2022/07/09 06:22:31;;;;;;;21.20;14.50;;;20.50;99.90;;;;;;4972658;28;25055;-72
2022/07/09 06:24:57;;;;;;;22.58;14.05;;;20.50;99.90;;;;;;4976164;28;25065;-71
2022/07/09 06:27:23;;;;;;;31.95;14.52;;;20.60;99.90;;;;;;4977066;28;25109;-68
2022/07/09 06:29:48;;;;;;;23.13;13.70;;;20.90;99.90;;;;;;4992295;28;25087;-67
2022/07/09 06:32:14;;;;;;;25.15;14.35;;;21.00;99.90;;;;;;4980529;28;25076;-71
2022/07/09 06:34:40;;;;;;;17.02;13.70;;;20.90;99.90;;;;;;4973592;28;25089;-68
2022/07/09 06:37:06;;;;;;;13.88;11.45;;;21.10;99.90;;;;;;4976627;28;25063;-69
2022/07/09 06:39:50;;;;;;;19.58;12.68;;;21.20;99.90;;;;;;4982014;28;25077;-69
2022/07/09 06:42:17;;;;;;;21.85;13.43;;;21.10;99.90;;;;;;4976186;28;25172;-71
2022/07/09 06:44:43;;;;;;;18.20;13.02;;;20.60;99.90;;;;;;4994752;28;25069;-70
2022/07/09 06:47:10;;;;;;;15.30;12.43;;;20.60;99.90;;;;;;4974189;28;25064;-70
2022/07/09 06:49:36;;;;;;;16.90;12.23;;;20.60;99.90;;;;;;4974105;28;25144;-69
2022/07/09 06:52:02;;;;;;;14.88;10.77;;;20.70;99.90;;;;;;4973360;28;25141;-73
2022/07/09 06:54:28;;;;;;;12.85;8.30;;;20.60;99.90;;;;;;4980465;28;25068;-71
2022/07/09 06:56:53;;;;;;;14.18;8.50;;;20.50;99.90;;;;;;4975495;28;25069;-73
2022/07/09 06:59:21;;;;;;;17.08;8.23;;;20.40;99.90;;;;;;4983853;28;25132;-69
2022/07/09 07:01:47;;;;;;;12.40;8.15;;;20.50;99.90;;;;;;4982404;28;25091;-68
2022/07/09 07:04:14;;;;;;;13.90;7.80;;;20.80;99.90;;;;;;4981765;28;25088;-71
2022/07/09 07:06:41;;;;;;;15.63;7.90;;;20.70;99.90;;;;;;4982918;28;25069;-71
2022/07/09 07:09:07;;;;;;;11.63;7.00;;;20.70;99.90;;;;;;4985384;28;25074;-71
2022/07/09 07:11:33;;;;;;;13.35;7.80;;;20.90;99.90;;;;;;4981002;28;25153;-70
2022/07/09 07:13:58;;;;;;;12.00;7.22;;;21.00;99.90;;;;;;4977147;28;25056;-71
2022/07/09 07:16:24;;;;;;;11.55;7.28;;;20.80;99.90;;;;;;4969671;28;25105;-68
2022/07/09 07:18:50;;;;;;;22.17;8.15;;;20.70;99.90;;;;;;4981712;28;25073;-68
2022/07/09 07:21:16;;;;;;;16.02;9.27;;;20.80;99.90;;;;;;4973540;28;25120;-72
2022/07/09 07:23:41;;;;;;;12.65;8.95;;;20.50;99.90;;;;;;4980816;28;25053;-68
2022/07/09 07:26:07;;;;;;;18.00;11.20;;;20.50;99.90;;;;;;4968580;28;25167;-70
2022/07/09 07:28:33;;;;;;;16.73;10.25;;;20.20;99.90;;;;;;4975580;28;25150;-70
2022/07/09 07:30:59;;;;;;;16.45;9.15;;;20.20;99.90;;;;;;4971100;28;25108;-71
2022/07/09 07:33:25;;;;;;;19.67;9.00;;;20.30;99.90;;;;;;4981249;28;25066;-67
2022/07/09 07:35:51;;;;;;;17.50;8.82;;;20.10;99.90;;;;;;4977756;28;25101;-68
2022/07/09 07:38:17;;;;;;;14.13;7.43;;;20.30;99.90;;;;;;4998146;28;25100;-72
2022/07/09 07:40:43;;;;;;;13.35;7.90;;;20.60;99.90;;;;;;4987243;28;25111;-69
2022/07/09 07:43:12;;;;;;;11.90;8.57;;;20.70;99.90;;;;;;4998521;28;25096;-72
2022/07/09 07:45:37;;;;;;;16.83;8.13;;;20.50;99.90;;;;;;4981919;28;25128;-71
2022/07/09 07:48:04;;;;;;;11.73;8.38;;;20.30;99.90;;;;;;4981204;28;25097;-71
2022/07/09 07:50:29;;;;;;;14.13;7.32;;;20.30;99.90;;;;;;4971549;28;25157;-71
2022/07/09 07:52:56;;;;;;;10.05;4.90;;;20.30;99.90;;;;;;4981917;28;25091;-71
2022/07/09 07:55:22;;;;;;;7.18;4.60;;;20.30;99.90;;;;;;4978412;28;25110;-70
2022/07/09 07:57:48;;;;;;;8.75;4.70;;;20.20;99.90;;;;;;4977538;28;25140;-72
2022/07/09 08:00:13;;;;;;;6.50;3.92;;;20.10;99.90;;;;;;4977693;28;25073;-71
2022/07/09 08:02:39;;;;;;;8.25;4.57;;;20.30;99.90;;;;;;4982704;28;25067;-69
2022/07/09 08:05:06;;;;;;;4.80;4.28;;;20.20;99.90;;;;;;4973885;28;25136;-69
2022/07/09 08:07:32;;;;;;;5.18;3.50;;;20.30;99.90;;;;;;4979631;28;25048;-69
2022/07/09 08:09:58;;;;;;;7.22;3.03;;;20.10;99.90;;;;;;4980117;28;25089;-70
2022/07/09 08:12:23;;;;;;;7.40;2.75;;;20.10;99.90;;;;;;4982893;28;25071;-72
2022/07/09 08:14:49;;;;;;;6.50;3.75;;;20.20;99.90;;;;;;4972179;28;25101;-69
2022/07/09 08:17:15;;;;;;;5.15;2.78;;;20.30;99.90;;;;;;4983165;28;25124;-71
2022/07/09 08:19:40;;;;;;;6.50;2.78;;;20.20;99.90;;;;;;4981613;28;25072;-69
2022/07/09 08:22:06;;;;;;;3.70;2.00;;;20.10;99.90;;;;;;4976324;28;25064;-70
2022/07/09 08:24:32;;;;;;;4.18;2.03;;;20.20;99.90;;;;;;4980610;28;25058;-70
2022/07/09 08:26:58;;;;;;;3.20;1.52;;;20.10;99.90;;;;;;4981719;28;25101;-69
2022/07/09 08:29:25;;;;;;;6.53;2.05;;;20.00;99.90;;;;;;4979691;28;25071;-70
2022/07/09 08:31:51;;;;;;;4.68;1.55;;;20.10;99.90;;;;;;4986767;28;25194;-72
2022/07/09 08:34:17;;;;;;;4.50;1.50;;;20.30;99.90;;;;;;4980747;28;25075;-71
2022/07/09 08:36:44;;;;;;;5.43;1.80;;;20.50;99.90;;;;;;4988760;28;25103;-68
2022/07/09 08:39:10;;;;;;;2.38;1.23;;;20.40;99.90;;;;;;4986350;28;25390;-70
2022/07/09 08:41:36;;;;;;;5.50;2.00;;;20.40;99.90;;;;;;4995537;28;25109;-71
2022/07/09 08:44:04;;;;;;;8.38;1.80;;;20.50;99.90;;;;;;4978110;28;25089;-70
2022/07/09 08:46:31;;;;;;;2.33;1.40;;;20.30;99.90;;;;;;4980336;28;25050;-70
2022/07/09 08:48:58;;;;;;;3.15;1.30;;;20.20;99.90;;;;;;4984706;28;25132;-69
2022/07/09 08:51:24;;;;;;;5.25;1.50;;;20.40;99.90;;;;;;4983927;28;25077;-68
2022/07/09 08:53:52;;;;;;;4.72;1.15;;;20.50;99.90;;;;;;4982202;28;25065;-71
2022/07/09 08:56:20;;;;;;;5.47;1.90;;;20.60;99.90;;;;;;4978524;28;25101;-70
2022/07/09 08:58:46;;;;;;;2.67;1.50;;;20.50;99.90;;;;;;4986287;28;25071;-70
2022/07/09 09:01:15;;;;;;;2.60;1.48;;;20.60;99.90;;;;;;4979693;28;25059;-69
2022/07/09 09:03:45;;;;;;;3.50;1.30;;;20.50;99.90;;;;;;4977388;28;25133;-69
2022/07/09 09:06:12;;;;;;;4.90;1.55;;;20.40;99.90;;;;;;4985185;28;25069;-71
2022/07/09 09:08:42;;;;;;;5.93;1.45;;;20.30;99.90;;;;;;4984882;28;25073;-71
2022/07/09 09:11:22;;;;;;;6.18;1.50;;;20.30;99.90;;;;;;4990654;28;25059;-70
2022/07/09 09:13:49;;;;;;;3.30;1.50;;;20.10;99.90;;;;;;4985645;28;25091;-71
2022/07/09 09:16:16;;;;;;;7.15;2.20;;;20.20;99.90;;;;;;4988973;28;25052;-71
2022/07/09 09:18:44;;;;;;;2.03;1.40;;;20.40;99.90;;;;;;4992549;28;25062;-71
2022/07/09 09:21:10;;;;;;;1.40;1.30;;;20.40;99.90;;;;;;4989195;28;25085;-70
2022/07/09 09:23:39;;;;;;;4.38;1.88;;;20.40;99.90;;;;;;4993067;28;25080;-71
2022/07/09 09:26:16;;;;;;;5.93;1.83;;;20.40;99.90;;;;;;4995178;28;25056;-71
2022/07/09 09:29:00;;;;;;;6.00;1.55;;;20.30;99.90;;;;;;5001712;28;25102;-71
2022/07/09 09:31:30;;;;;;;4.32;1.15;;;20.80;99.90;;;;;;4995356;28;25158;-70
2022/07/09 09:34:06;;;;;;;3.42;1.20;;;21.20;99.90;;;;;;4980227;28;25088;-70
2022/07/09 09:36:52;;;;;;;3.45;1.30;;;21.60;99.90;;;;;;4993070;28;25055;-69
2022/07/09 09:39:20;;;;;;;4.70;1.20;;;21.40;99.90;;;;;;4980351;28;25059;-70
2022/07/09 09:41:50;;;;;;;3.40;0.88;;;21.30;99.90;;;;;;4979518;28;25064;-71
2022/07/09 09:44:18;;;;;;;0.60;0.60;;;21.20;99.90;;;;;;4993658;28;25074;-70
2022/07/09 09:46:45;;;;;;;1.35;1.05;;;21.30;99.90;;;;;;4977855;28;25101;-71
2022/07/09 09:49:16;;;;;;;3.05;1.17;;;21.40;99.90;;;;;;4980030;28;25057;-69
2022/07/09 09:51:53;;;;;;;2.88;1.02;;;21.20;99.90;;;;;;4982850;28;25091;-70
2022/07/09 09:54:20;;;;;;;2.90;1.17;;;21.10;99.90;;;;;;4995684;28;25057;-69
2022/07/09 09:56:47;;;;;;;3.60;1.15;;;21.10;99.90;;;;;;4977760;28;25074;-69
2022/07/09 09:59:13;;;;;;;1.33;0.80;;;21.10;99.90;;;;;;4997761;28;25142;-71
2022/07/09 10:01:43;;;;;;;3.53;1.10;;;21.30;99.90;;;;;;4967693;28;25072;-70
2022/07/09 10:04:10;;;;;;;7.07;1.20;;;21.40;99.90;;;;;;4981483;28;25075;-69
2022/07/09 10:06:36;;;;;;;2.67;1.13;;;21.50;99.90;;;;;;4979821;28;25061;-71
2022/07/09 10:09:04;;;;;;;2.92;1.08;;;21.30;99.90;;;;;;4994007;28;25081;-71
2022/07/09 10:11:46;;;;;;;3.58;1.00;;;21.20;99.90;;;;;;4993329;28;25082;-70
2022/07/09 10:14:15;;;;;;;;;;;21.30;99.90;;;;;;4983918;28;25063;-72
2022/07/09 10:16:41;;;;;;;1.55;1.10;;;21.50;99.90;;;;;;4969583;28;24074;-72
2022/07/09 10:19:06;;;;;;;1.35;1.00;;;21.80;99.90;;;;;;4979265;28;24824;-72
2022/07/09 10:21:40;;;;;;;3.50;1.15;;;21.40;99.90;;;;;;4979182;28;25112;-70
2022/07/09 10:24:08;;;;;;;1.35;1.10;;;21.50;99.90;;;;;;4979997;28;25065;-72
2022/07/09 10:26:44;;;;;;;1.17;0.70;;;21.20;99.90;;;;;;4981337;28;25062;-70
2022/07/09 10:29:25;;;;;;;1.73;0.93;;;20.90;99.90;;;;;;4996637;28;25091;-71
2022/07/09 10:31:52;;;;;;;1.35;0.98;;;21.00;99.90;;;;;;4981112;28;25044;-71
2022/07/09 10:34:32;;;;;;;3.50;0.85;;;20.90;99.90;;;;;;4973602;28;25060;-69
2022/07/09 10:37:02;;;;;;;2.38;0.88;;;21.10;99.90;;;;;;4980160;28;25104;-71
2022/07/09 10:39:29;;;;;;;1.15;0.93;;;21.30;99.90;;;;;;4984661;28;25064;-71
2022/07/09 10:42:18;;;;;;;1.60;1.30;;;21.30;99.90;;;;;;4976766;28;25058;-70
2022/07/09 10:44:45;;;;;;;1.60;1.00;;;20.90;99.90;;;;;;4984718;28;25061;-71
2022/07/09 10:47:11;;;;;;;2.25;1.17;;;20.80;99.90;;;;;;4973799;28;25106;-70
2022/07/09 10:49:37;;;;;;;2.05;1.00;;;20.70;99.90;;;;;;4981526;28;25074;-70
2022/07/09 10:52:06;;;;;;;2.47;0.85;;;20.50;99.90;;;;;;4988902;28;25135;-70
2022/07/09 10:54:33;;;;;;;1.52;0.90;;;20.30;99.90;;;;;;4984910;28;25142;-70
2022/07/09 10:56:59;;;;;;;2.58;1.13;;;20.50;99.90;;;;;;4978192;28;25063;-70
2022/07/09 10:59:25;;;;;;;1.55;0.95;;;20.30;99.90;;;;;;4981104;28;25066;-69
2022/07/09 11:01:51;;;;;;;1.65;1.10;;;20.00;99.90;;;;;;4978297;28;25067;-75
2022/07/09 11:04:31;;;;;;;0.95;0.65;;;19.90;99.90;;;;;;4989611;28;25080;-69
2022/07/09 11:06:58;;;;;;;1.52;0.88;;;20.20;99.90;;;;;;4969628;28;25061;-70
2022/07/09 11:09:28;;;;;;;1.55;0.90;;;20.30;99.90;;;;;;4977933;28;25058;-69
2022/07/09 11:11:53;;;;;;;0.63;0.63;;;21.20;99.90;;;;;;4984745;28;25150;-70
2022/07/09 11:14:19;;;;;;;2.65;0.68;;;21.40;99.90;;;;;;4980204;28;25102;-70
2022/07/09 11:17:01;;;;;;;2.05;0.80;;;21.40;99.90;;;;;;4982537;28;25062;-70
2022/07/09 11:19:30;;;;;;;2.75;0.85;;;21.70;99.90;;;;;;4984032;28;25048;-71
2022/07/09 11:22:04;;;;;;;2.25;0.70;;;21.90;99.90;;;;;;4971799;28;25145;-71
2022/07/09 11:24:30;;;;;;;0.82;0.82;;;22.00;99.90;;;;;;4975758;28;25057;-70
2022/07/09 11:27:00;;;;;;;3.80;1.05;;;21.30;99.90;;;;;;4995341;28;25133;-71
2022/07/09 11:29:26;;;;;;;1.33;0.90;;;21.20;99.90;;;;;;4977631;28;25077;-72
2022/07/09 11:31:52;;;;;;;1.40;0.73;;;21.10;99.90;;;;;;4967283;28;25107;-70
2022/07/09 11:34:19;;;;;;;1.65;0.65;;;21.30;99.90;;;;;;4981001;28;25076;-70
2022/07/09 11:36:52;;;;;;;2.05;1.10;;;21.20;99.90;;;;;;4980633;28;25099;-71
2022/07/09 11:39:28;;;;;;;3.90;1.10;;;21.00;99.90;;;;;;4974017;28;25066;-70
2022/07/09 11:41:55;;;;;;;1.95;0.70;;;21.00;99.90;;;;;;4975406;28;25111;-72
2022/07/09 11:44:21;;;;;;;1.27;0.70;;;21.20;99.90;;;;;;4980616;28;25121;-69
2022/07/09 11:46:59;;;;;;;1.50;0.68;;;22.00;99.90;;;;;;4979757;28;25142;-69
2022/07/09 11:49:42;;;;;;;1.00;0.88;;;22.30;99.90;;;;;;4982399;28;25066;-71
2022/07/09 11:52:18;;;;;;;5.97;1.20;;;22.10;99.90;;;;;;4978565;28;25050;-71
2022/07/09 11:55:05;;;;;;;10.93;1.67;;;21.70;99.90;;;;;;4988281;28;25066;-68
2022/07/09 11:57:33;;;;;;;5.97;1.63;;;21.50;99.90;;;;;;4993359;28;25072;-72
2022/07/09 11:59:59;;;;;;;9.05;1.30;;;21.00;99.90;;;;;;4989043;28;25056;-71
2022/07/09 12:02:32;;;;;;;5.65;1.52;;;20.70;99.90;;;;;;4981124;28;25095;-72
2022/07/09 12:04:59;;;;;;;6.15;1.80;;;20.50;99.90;;;;;;4991958;28;25085;-72
2022/07/09 12:07:24;;;;;;;3.83;1.30;;;20.50;99.90;;;;;;4982107;28;25109;-72
2022/07/09 12:10:05;;;;;;;3.47;1.02;;;20.20;99.90;;;;;;4980387;28;25080;-69
2022/07/09 12:12:32;;;;;;;5.07;1.50;;;20.70;99.90;;;;;;4985775;28;25063;-72
2022/07/09 12:14:57;;;;;;;7.22;1.63;;;20.60;99.90;;;;;;4980869;28;25052;-72
2022/07/09 12:17:30;;;;;;;5.22;1.40;;;21.10;99.90;;;;;;4985327;28;25058;-70
2022/07/09 12:19:57;;;;;;;2.25;0.95;;;21.30;99.90;;;;;;4988382;28;25065;-70
2022/07/09 12:22:24;;;;;;;3.55;0.98;;;21.40;99.90;;;;;;4986735;28;25111;-71
2022/07/09 12:24:50;;;;;;;3.90;1.63;;;20.90;99.90;;;;;;4984192;28;25052;-69
2022/07/09 12:27:16;;;;;;;6.57;1.33;;;20.90;99.90;;;;;;4974470;28;25053;-70
2022/07/09 12:29:42;;;;;;;5.35;1.98;;;21.10;99.90;;;;;;4973973;28;25077;-71
2022/07/09 12:32:07;;;;;;;2.30;1.23;;;20.70;99.90;;;;;;4974579;28;25144;-70
2022/07/09 12:34:33;;;;;;;3.05;0.98;;;21.00;99.90;;;;;;4972041;28;25076;-71